createdAt,value
2023-01-02T00:00:21.318Z,13.96
2023-01-02T00:02:48.297Z,13.77
2023-01-02T00:05:15.384Z,13.82
2023-01-02T00:07:42.258Z,13.93
2023-01-02T00:10:10.394Z,14.07
2023-01-02T00:12:37.100Z,13.93
2023-01-02T00:15:04.772Z,13.70
2023-01-02T00:17:31.508Z,13.93
2023-01-02T00:19:58.327Z,14.01
2023-01-02T00:22:24.985Z,14.01
2023-01-02T00:24:51.698Z,13.98
2023-01-02T00:27:18.498Z,13.84
2023-01-02T00:29:45.265Z,13.82
2023-01-02T00:32:12.036Z,13.98
2023-01-02T00:34:38.684Z,14.04
2023-01-02T00:37:05.434Z,13.91
2023-01-02T00:39:32.134Z,14.01
2023-01-02T00:41:58.809Z,14.06
2023-01-02T00:44:25.471Z,14.03
2023-01-02T00:46:54.143Z,14.01
2023-01-02T00:49:20.848Z,13.99
2023-01-02T00:51:47.539Z,14.17
2023-01-02T00:54:14.730Z,13.93
2023-01-02T00:56:41.615Z,13.88
2023-01-02T00:59:08.341Z,13.82
2023-01-02T01:01:35.262Z,13.85
2023-01-02T01:04:02.094Z,13.87
2023-01-02T01:06:28.802Z,13.99
2023-01-02T01:08:55.522Z,13.95
2023-01-02T01:11:22.187Z,14.14
2023-01-02T01:13:48.825Z,14.11
2023-01-02T01:16:18.200Z,13.89
2023-01-02T01:18:45.704Z,13.92
2023-01-02T01:21:17.955Z,13.95
2023-01-02T01:23:45.091Z,13.87
2023-01-02T01:26:13.494Z,13.81
2023-01-02T01:28:40.710Z,13.82
2023-01-02T01:31:12.537Z,13.79
2023-01-02T01:33:40.319Z,13.76
2023-01-02T01:36:12.003Z,13.76
2023-01-02T01:38:39.142Z,13.83
2023-01-02T01:41:06.150Z,13.96
2023-01-02T01:43:38.140Z,13.93
2023-01-02T01:46:08.252Z,13.82
2023-01-02T01:48:35.161Z,13.72
2023-01-02T01:51:02.503Z,13.91
2023-01-02T01:53:29.206Z,13.82
2023-01-02T01:56:00.402Z,13.93
2023-01-02T01:58:30.318Z,14.10
2023-01-02T02:00:57.195Z,14.17
2023-01-02T02:03:26.659Z,14.09
2023-01-02T02:05:53.832Z,14.02
2023-01-02T02:08:25.362Z,14.06
2023-01-02T02:10:53.309Z,14.03
2023-01-02T02:13:19.977Z,14.12
2023-01-02T02:16:17.995Z,14.23
2023-01-02T02:19:06.243Z,14.24
2023-01-02T02:21:55.584Z,14.09
2023-01-02T02:24:33.532Z,14.10
2023-01-02T02:27:24.883Z,14.09
2023-01-02T02:30:07.716Z,14.07
2023-01-02T02:32:40.645Z,14.28
2023-01-02T02:35:29.367Z,14.32
2023-01-02T02:38:19.828Z,14.29
2023-01-02T02:40:57.834Z,14.26
2023-01-02T02:43:33.624Z,14.39
2023-01-02T02:46:22.866Z,14.40
2023-01-02T02:49:11.281Z,14.43
2023-01-02T02:51:48.149Z,14.48
2023-01-02T02:54:30.711Z,14.58
2023-01-02T02:56:57.748Z,14.59
2023-01-02T02:59:24.432Z,14.48
2023-01-02T03:01:51.575Z,14.57
2023-01-02T03:04:20.612Z,14.51
2023-01-02T03:06:47.459Z,14.48
2023-01-02T03:09:21.573Z,14.51
2023-01-02T03:12:04.802Z,14.61
2023-01-02T03:14:50.417Z,14.61
2023-01-02T03:17:44.497Z,14.50
2023-01-02T03:20:14.177Z,14.55
2023-01-02T03:22:43.565Z,14.42
2023-01-02T03:25:11.550Z,14.52
2023-01-02T03:27:42.339Z,14.69
2023-01-02T03:30:17.433Z,14.81
2023-01-02T03:33:05.591Z,14.64
2023-01-02T03:35:40.552Z,14.60
2023-01-02T03:38:10.611Z,14.68
2023-01-02T03:40:44.027Z,14.54
2023-01-02T03:43:15.346Z,14.68
2023-01-02T03:45:49.115Z,14.71
2023-01-02T03:48:19.112Z,14.80
2023-01-02T03:50:49.401Z,14.73
2023-01-02T03:53:16.084Z,14.79
2023-01-02T03:55:57.876Z,14.80
2023-01-02T03:58:36.057Z,14.68
2023-01-02T04:01:07.264Z,14.73
2023-01-02T04:04:05.025Z,14.76
2023-01-02T04:06:36.657Z,14.78
2023-01-02T04:09:08.088Z,14.83
2023-01-02T04:11:36.392Z,14.84
2023-01-02T04:14:09.779Z,14.88
2023-01-02T04:16:37.926Z,14.81
2023-01-02T04:19:13.450Z,14.79
2023-01-02T04:21:41.503Z,14.85
2023-01-02T04:24:11.886Z,14.95
2023-01-02T04:27:01.023Z,14.92
2023-01-02T04:29:27.781Z,14.66
2023-01-02T04:32:04.063Z,14.69
2023-01-02T04:34:33.581Z,14.69
2023-01-02T04:37:00.269Z,14.70
2023-01-02T04:39:28.853Z,14.79
2023-01-02T04:41:55.559Z,14.81
2023-01-02T04:44:22.223Z,14.77
2023-01-02T04:46:48.979Z,14.85
2023-01-02T04:49:15.628Z,14.91
2023-01-02T04:51:42.296Z,14.90
2023-01-02T04:54:11.552Z,14.79
2023-01-02T04:56:38.548Z,14.82
2023-01-02T04:59:05.178Z,14.85
2023-01-02T05:01:31.945Z,14.73
2023-01-02T05:03:58.711Z,14.71
2023-01-02T05:06:25.418Z,14.75
2023-01-02T05:08:52.161Z,14.78
2023-01-02T05:11:20.125Z,14.85
2023-01-02T05:13:46.925Z,15.02
2023-01-02T05:16:13.869Z,14.77
2023-01-02T05:18:40.861Z,14.73
2023-01-02T05:21:29.565Z,14.87
2023-01-02T05:23:57.129Z,14.80
2023-01-02T05:26:23.774Z,14.96
2023-01-02T05:28:53.282Z,14.93
2023-01-02T05:31:20.104Z,14.86
2023-01-02T05:33:54.173Z,15.01
2023-01-02T05:36:21.887Z,15.03
2023-01-02T05:38:48.693Z,15.01
2023-01-02T05:41:15.624Z,14.97
2023-01-02T05:43:42.348Z,14.91
2023-01-02T05:46:14.915Z,14.91
2023-01-02T05:48:41.865Z,14.85
2023-01-02T05:51:10.033Z,15.02
2023-01-02T05:53:36.866Z,14.91
2023-01-02T05:56:15.018Z,14.90
2023-01-02T05:58:43.893Z,14.87
2023-01-02T06:01:15.621Z,14.88
2023-01-02T06:03:46.988Z,14.80
2023-01-02T06:06:14.450Z,14.95
2023-01-02T06:08:41.119Z,14.89
2023-01-02T06:11:08.282Z,14.97
2023-01-02T06:13:36.603Z,14.86
2023-01-02T06:16:04.240Z,14.93
2023-01-02T06:18:32.419Z,15.06
2023-01-02T06:21:03.821Z,15.13
2023-01-02T06:23:30.580Z,14.90
2023-01-02T06:26:09.666Z,14.93
2023-01-02T06:28:36.387Z,14.99
2023-01-02T06:31:14.247Z,15.26
2023-01-02T06:33:41.641Z,15.28
2023-01-02T06:36:13.416Z,15.32
2023-01-02T06:38:40.249Z,15.31
2023-01-02T06:41:08.577Z,15.23
2023-01-02T06:43:37.081Z,15.23
2023-01-02T06:46:05.302Z,15.30
2023-01-02T06:48:33.611Z,15.31
2023-01-02T06:51:00.647Z,15.45
2023-01-02T06:53:27.317Z,15.40
2023-01-02T06:55:56.092Z,15.59
2023-01-02T06:58:23.028Z,15.60
2023-01-02T07:00:50.155Z,15.46
2023-01-02T07:03:17.221Z,15.54
2023-01-02T07:05:44.346Z,15.54
2023-01-02T07:08:11.396Z,15.35
2023-01-02T07:10:38.201Z,15.50
2023-01-02T07:13:04.970Z,15.57
2023-01-02T07:15:32.686Z,15.59
2023-01-02T07:17:59.424Z,15.67
2023-01-02T07:20:26.124Z,15.69
2023-01-02T07:22:54.575Z,15.77
2023-01-02T07:25:21.933Z,15.63
2023-01-02T07:27:48.784Z,15.56
2023-01-02T07:30:15.839Z,15.60
2023-01-02T07:32:43.507Z,15.76
2023-01-02T07:35:11.105Z,15.62
2023-01-02T07:37:38.289Z,15.57
2023-01-02T07:40:05.377Z,15.56
2023-01-02T07:42:32.058Z,15.58
2023-01-02T07:44:58.747Z,15.57
2023-01-02T07:47:25.419Z,15.62
2023-01-02T07:49:52.094Z,15.59
2023-01-02T07:52:18.818Z,15.67
2023-01-02T07:54:45.706Z,15.80
2023-01-02T07:57:12.456Z,15.78
2023-01-02T07:59:39.174Z,15.78
2023-01-02T08:02:06.404Z,15.66
2023-01-02T08:04:33.368Z,15.64
2023-01-02T08:07:00.323Z,15.61
2023-01-02T08:09:27.372Z,15.75
2023-01-02T08:11:54.194Z,15.73
2023-01-02T08:14:23.596Z,15.70
2023-01-02T08:16:51.401Z,15.78
2023-01-02T08:19:18.277Z,15.88
2023-01-02T08:21:45.019Z,15.73
2023-01-02T08:24:11.885Z,15.89
2023-01-02T08:26:38.863Z,15.87
2023-01-02T08:29:05.901Z,15.96
2023-01-02T08:31:32.654Z,15.69
2023-01-02T08:33:59.423Z,15.88
2023-01-02T08:36:26.238Z,15.84
2023-01-02T08:38:53.040Z,16.04
2023-01-02T08:41:35.885Z,16.05
2023-01-02T08:44:03.808Z,15.90
2023-01-02T08:46:38.597Z,16.03
2023-01-02T08:49:09.220Z,16.00
2023-01-02T08:51:35.963Z,16.03
2023-01-02T08:54:02.768Z,16.11
2023-01-02T08:56:31.747Z,16.06
2023-01-02T08:59:01.049Z,16.10
2023-01-02T09:01:29.127Z,16.19
2023-01-02T09:03:56.524Z,16.23
2023-01-02T09:06:24.973Z,16.14
2023-01-02T09:08:57.272Z,16.24
2023-01-02T09:11:33.005Z,16.27
2023-01-02T09:14:00.572Z,16.04
2023-01-02T09:16:28.093Z,16.16
2023-01-02T09:18:59.423Z,16.08
2023-01-02T09:21:26.181Z,16.34
2023-01-02T09:23:53.026Z,16.38
2023-01-02T09:26:19.974Z,16.37
2023-01-02T09:28:47.227Z,16.42
2023-01-02T09:31:15.974Z,16.45
2023-01-02T09:33:44.178Z,16.57
2023-01-02T09:36:13.160Z,16.53
2023-01-02T09:38:40.071Z,16.61
2023-01-02T09:41:34.322Z,16.62
2023-01-02T09:44:16.065Z,16.59
2023-01-02T09:46:56.883Z,16.68
2023-01-02T09:49:44.769Z,16.65
2023-01-02T09:52:20.498Z,16.78
2023-01-02T09:54:47.559Z,16.68
2023-01-02T09:57:29.530Z,16.66
2023-01-02T10:00:04.812Z,16.78
2023-01-02T10:02:46.362Z,16.86
2023-01-02T10:05:29.907Z,16.86
2023-01-02T10:08:37.188Z,16.84
2023-01-02T10:11:15.001Z,16.64
2023-01-02T10:14:32.188Z,16.66
2023-01-02T10:16:58.409Z,16.81
2023-01-02T10:19:42.808Z,17.04
2023-01-02T10:22:14.417Z,17.11
2023-01-02T10:25:16.113Z,17.07
2023-01-02T10:27:53.700Z,16.98
2023-01-02T10:30:22.999Z,17.10
2023-01-02T10:32:56.243Z,16.98
2023-01-02T10:35:26.744Z,17.02
2023-01-02T10:37:56.564Z,16.92
2023-01-02T10:40:24.258Z,16.97
2023-01-02T10:43:00.094Z,16.98
2023-01-02T10:45:27.415Z,16.93
2023-01-02T10:47:54.335Z,16.83
2023-01-02T10:50:24.413Z,16.92
2023-01-02T10:52:54.593Z,16.97
2023-01-02T10:55:47.893Z,16.98
2023-01-02T10:58:25.932Z,16.84
2023-01-02T11:01:07.820Z,16.96
2023-01-02T11:03:35.010Z,16.86
2023-01-02T11:06:26.966Z,16.79
2023-01-02T11:09:22.963Z,17.00
2023-01-02T11:11:58.242Z,16.82
2023-01-02T11:14:29.766Z,16.84
2023-01-02T11:17:05.851Z,16.90
2023-01-02T11:19:39.583Z,16.67
2023-01-02T11:22:09.159Z,16.61
2023-01-02T11:25:00.002Z,16.76
2023-01-02T11:27:40.733Z,16.71
2023-01-02T11:30:33.848Z,16.72
2023-01-02T11:33:13.748Z,16.68
2023-01-02T11:35:56.730Z,16.70
2023-01-02T11:38:29.801Z,16.77
2023-01-02T11:41:02.732Z,16.78
2023-01-02T11:43:50.043Z,16.79
2023-01-02T11:46:31.358Z,16.80
2023-01-02T11:49:21.167Z,16.70
2023-01-02T11:51:58.551Z,16.94
2023-01-02T11:54:39.386Z,16.74
2023-01-02T11:57:18.582Z,16.85
2023-01-02T11:59:48.072Z,16.75
2023-01-02T12:02:21.341Z,16.65
2023-01-02T12:04:48.168Z,16.72
2023-01-02T12:07:22.569Z,16.69
2023-01-02T12:10:19.930Z,16.71
2023-01-02T12:13:11.357Z,16.37
2023-01-02T12:16:04.130Z,16.54
2023-01-02T12:18:40.058Z,16.46
2023-01-02T12:21:19.060Z,16.62
2023-01-02T12:24:07.201Z,16.64
2023-01-02T12:26:55.271Z,16.50
2023-01-02T12:29:47.989Z,16.71
2023-01-02T12:32:33.077Z,16.65
2023-01-02T12:35:09.472Z,16.53
2023-01-02T12:37:53.772Z,16.53
2023-01-02T12:40:23.507Z,16.45
2023-01-02T12:43:13.258Z,16.56
2023-01-02T12:45:43.969Z,16.55
2023-01-02T12:48:29.948Z,16.57
2023-01-02T12:51:18.113Z,16.51
2023-01-02T12:54:20.549Z,16.46
2023-01-02T12:57:09.957Z,16.41
2023-01-02T12:59:49.032Z,16.29
2023-01-02T13:02:38.681Z,16.40
2023-01-02T13:05:07.805Z,16.48
2023-01-02T13:07:47.077Z,16.55
2023-01-02T13:10:17.454Z,16.42
2023-01-02T13:12:44.629Z,16.44
2023-01-02T13:15:26.657Z,16.38
2023-01-02T13:18:06.601Z,16.46
2023-01-02T13:20:56.051Z,16.48
2023-01-02T13:23:24.354Z,16.39
2023-01-02T13:25:54.303Z,16.46
2023-01-02T13:28:24.591Z,16.53
2023-01-02T13:31:00.980Z,16.53
2023-01-02T13:33:40.586Z,16.24
2023-01-02T13:36:39.163Z,16.50
2023-01-02T13:39:18.260Z,16.32
2023-01-02T13:42:10.028Z,16.47
2023-01-02T13:44:39.351Z,16.48
2023-01-02T13:47:31.863Z,16.49
2023-01-02T13:50:08.759Z,16.55
2023-01-02T13:52:35.748Z,16.56
2023-01-02T13:55:33.549Z,16.44
2023-01-02T13:58:23.835Z,16.53
2023-01-02T14:00:56.131Z,16.50
2023-01-02T14:03:23.794Z,16.44
2023-01-02T14:05:57.109Z,16.55
2023-01-02T14:08:34.804Z,16.51
2023-01-02T14:11:28.001Z,16.63
2023-01-02T14:13:55.884Z,16.52
2023-01-02T14:16:22.723Z,16.54
2023-01-02T14:19:25.685Z,16.50
2023-01-02T14:22:04.420Z,16.57
2023-01-02T14:24:40.664Z,16.54
2023-01-02T14:27:16.625Z,16.35
2023-01-02T14:29:52.538Z,16.34
2023-01-02T14:32:24.138Z,16.46
2023-01-02T14:34:53.318Z,16.40
2023-01-02T14:37:36.841Z,16.37
2023-01-02T14:40:33.028Z,16.54
2023-01-02T14:43:32.017Z,16.50
2023-01-02T14:46:04.821Z,16.54
2023-01-02T14:49:25.060Z,16.56
2023-01-02T14:52:06.263Z,16.43
2023-01-02T14:54:57.104Z,16.38
2023-01-02T14:57:27.694Z,16.46
2023-01-02T14:59:56.780Z,16.46
2023-01-02T15:02:30.411Z,16.41
2023-01-02T15:05:06.379Z,16.48
2023-01-02T15:07:36.733Z,16.45
2023-01-02T15:10:19.564Z,16.42
2023-01-02T15:13:07.335Z,16.36
2023-01-02T15:15:41.302Z,16.29
2023-01-02T15:18:18.136Z,16.32
2023-01-02T15:20:49.501Z,16.25
2023-01-02T15:23:20.489Z,16.01
2023-01-02T15:25:47.340Z,16.05
2023-01-02T15:28:27.462Z,16.10
2023-01-02T15:31:01.787Z,16.06
2023-01-02T15:33:33.745Z,16.00
2023-01-02T15:36:08.161Z,15.98
2023-01-02T15:38:34.940Z,15.95
2023-01-02T15:41:01.623Z,15.94
2023-01-02T15:43:48.542Z,15.91
2023-01-02T15:46:15.520Z,15.86
2023-01-02T15:48:43.540Z,15.81
2023-01-02T15:51:20.796Z,15.82
2023-01-02T15:54:11.590Z,15.64
2023-01-02T15:56:47.675Z,15.79
2023-01-02T15:59:47.900Z,15.71
2023-01-02T16:02:44.244Z,15.75
2023-01-02T16:05:17.508Z,15.40
2023-01-02T16:07:55.811Z,15.39
2023-01-02T16:10:24.822Z,15.47
2023-01-02T16:13:02.656Z,15.54
2023-01-02T16:15:32.091Z,15.55
2023-01-02T16:17:59.174Z,15.44
2023-01-02T16:20:26.788Z,15.49
2023-01-02T16:23:02.309Z,15.38
2023-01-02T16:25:34.341Z,15.34
2023-01-02T16:28:33.985Z,15.36
2023-01-02T16:31:11.709Z,15.38
2023-01-02T16:33:39.475Z,15.29
2023-01-02T16:36:10.318Z,14.98
2023-01-02T16:38:49.863Z,15.09
2023-01-02T16:41:48.075Z,14.77
2023-01-02T16:44:16.679Z,14.98
2023-01-02T16:46:45.739Z,14.95
2023-01-02T16:49:18.440Z,15.10
2023-01-02T16:51:51.224Z,14.83
2023-01-02T16:54:19.387Z,14.95
2023-01-02T16:56:47.399Z,15.01
2023-01-02T16:59:14.140Z,14.93
2023-01-02T17:01:41.028Z,14.68
2023-01-02T17:04:08.149Z,14.46
2023-01-02T17:06:35.717Z,14.31
2023-01-02T17:09:02.571Z,14.28
2023-01-02T17:11:29.908Z,14.36
2023-01-02T17:13:56.777Z,14.29
2023-01-02T17:16:23.868Z,14.15
2023-01-02T17:18:50.731Z,14.05
2023-01-02T17:21:19.045Z,14.02
2023-01-02T17:23:45.864Z,13.91
2023-01-02T17:26:12.740Z,13.82
2023-01-02T17:28:39.760Z,13.95
2023-01-02T17:31:06.760Z,13.77
2023-01-02T17:33:33.698Z,13.79
2023-01-02T17:36:00.350Z,13.71
2023-01-02T17:38:27.156Z,13.74
2023-01-02T17:40:58.440Z,13.74
2023-01-02T17:43:26.533Z,13.63
2023-01-02T17:45:53.701Z,13.70
2023-01-02T17:48:24.652Z,13.70
2023-01-02T17:50:52.795Z,13.72
2023-01-02T17:53:19.739Z,13.58
2023-01-02T17:56:20.526Z,13.70
2023-01-02T17:58:43.782Z,13.74
2023-01-02T18:01:16.003Z,13.74
2023-01-02T18:03:43.359Z,13.70
2023-01-02T18:06:11.572Z,13.84
2023-01-02T18:08:39.191Z,13.53
2023-01-02T18:11:11.124Z,13.36
2023-01-02T18:13:48.027Z,13.58
2023-01-02T18:16:27.267Z,13.58
2023-01-02T18:18:54.346Z,13.52
2023-01-02T18:21:23.353Z,13.14
2023-01-02T18:23:54.826Z,13.16
2023-01-02T18:26:21.912Z,13.40
2023-01-02T18:28:57.412Z,13.46
2023-01-02T18:31:25.451Z,13.46
2023-01-02T18:33:55.166Z,13.56
2023-01-02T18:36:24.203Z,13.40
2023-01-02T18:39:01.342Z,13.61
2023-01-02T18:41:30.287Z,13.66
2023-01-02T18:44:01.062Z,13.71
2023-01-02T18:47:03.646Z,13.70
2023-01-02T18:49:27.327Z,13.64
2023-01-02T18:52:12.961Z,13.72
2023-01-02T18:54:43.794Z,13.69
2023-01-02T18:57:16.345Z,13.80
2023-01-02T18:59:46.577Z,13.72
2023-01-02T19:02:28.383Z,13.68
2023-01-02T19:04:56.579Z,13.53
2023-01-02T19:07:29.357Z,13.47
2023-01-02T19:10:34.516Z,13.42
2023-01-02T19:13:07.599Z,13.32
2023-01-02T19:15:36.526Z,13.36
2023-01-02T19:18:16.010Z,13.40
2023-01-02T19:20:45.772Z,13.34
2023-01-02T19:23:26.706Z,12.67
2023-01-02T19:25:53.938Z,12.63
2023-01-02T19:28:25.831Z,13.02
2023-01-02T19:30:52.721Z,13.07
2023-01-02T19:33:26.545Z,12.93
2023-01-02T19:36:00.613Z,12.83
2023-01-02T19:38:29.715Z,12.49
2023-01-02T19:41:01.335Z,12.89
2023-01-02T19:43:28.204Z,12.66
2023-01-02T19:45:55.300Z,12.72
2023-01-02T19:48:22.071Z,12.93
2023-01-02T19:50:48.940Z,12.80
2023-01-02T19:53:24.825Z,12.87
2023-01-02T19:55:51.795Z,13.00
2023-01-02T19:58:18.809Z,12.93
2023-01-02T20:00:45.586Z,12.80
2023-01-02T20:03:12.475Z,12.89
2023-01-02T20:05:39.841Z,12.93
2023-01-02T20:08:06.684Z,12.90
2023-01-02T20:10:33.466Z,12.77
2023-01-02T20:13:00.206Z,12.82
2023-01-02T20:15:27.695Z,12.83
2023-01-02T20:17:55.091Z,12.87
2023-01-02T20:20:25.736Z,12.94
2023-01-02T20:22:53.014Z,12.89
2023-01-02T20:25:24.294Z,12.79
2023-01-02T20:27:52.391Z,12.81
2023-01-02T20:30:24.267Z,12.84
2023-01-02T20:32:51.898Z,12.77
2023-01-02T20:35:18.721Z,12.78
2023-01-02T20:37:45.665Z,12.81
2023-01-02T20:40:12.715Z,12.78
2023-01-02T20:42:39.453Z,12.69
2023-01-02T20:45:06.914Z,12.41
2023-01-02T20:47:36.474Z,12.62
2023-01-02T20:50:04.760Z,12.69
2023-01-02T20:52:31.810Z,12.42
2023-01-02T20:54:59.070Z,12.52
2023-01-02T20:57:25.803Z,12.49
2023-01-02T20:59:52.609Z,12.49
2023-01-02T21:02:19.675Z,12.43
2023-01-02T21:04:46.559Z,12.52
2023-01-02T21:07:13.433Z,12.54
2023-01-02T21:09:40.226Z,12.43
2023-01-02T21:12:27.129Z,12.47
2023-01-02T21:14:54.345Z,12.50
2023-01-02T21:17:21.059Z,12.47
2023-01-02T21:19:47.878Z,12.38
2023-01-02T21:22:14.665Z,12.42
2023-01-02T21:24:41.695Z,12.53
2023-01-02T21:27:13.014Z,12.56
2023-01-02T21:29:40.880Z,12.53
2023-01-02T21:32:07.980Z,12.52
2023-01-02T21:34:34.812Z,12.36
2023-01-02T21:37:01.685Z,12.47
2023-01-02T21:39:28.392Z,12.43
2023-01-02T21:42:14.015Z,12.47
2023-01-02T21:44:40.905Z,12.47
2023-01-02T21:47:07.907Z,12.36
2023-01-02T21:49:35.314Z,12.31
2023-01-02T21:52:02.298Z,12.21
2023-01-02T21:54:29.153Z,12.25
2023-01-02T21:56:55.985Z,12.33
2023-01-02T21:59:25.490Z,12.33
2023-01-02T22:01:53.210Z,12.29
2023-01-02T22:04:20.416Z,12.22
2023-01-02T22:07:21.254Z,11.88
2023-01-02T22:09:33.864Z,11.97
2023-01-02T22:12:00.812Z,12.12
2023-01-02T22:14:30.292Z,12.14
2023-01-02T22:16:59.016Z,12.11
2023-01-02T22:19:26.570Z,12.12
2023-01-02T22:21:53.475Z,12.11
2023-01-02T22:24:22.681Z,12.10
2023-01-02T22:26:51.464Z,12.07
2023-01-02T22:29:20.736Z,11.97
2023-01-02T22:31:48.589Z,12.06
2023-01-02T22:34:17.297Z,11.89
2023-01-02T22:36:44.024Z,11.94
2023-01-02T22:39:28.176Z,12.00
2023-01-02T22:42:57.786Z,12.02
2023-01-02T22:45:06.246Z,12.03
2023-01-02T22:47:36.432Z,12.01
2023-01-02T22:50:08.650Z,11.97
2023-01-02T22:52:38.500Z,11.93
2023-01-02T22:55:20.814Z,11.87
2023-01-02T22:57:51.424Z,11.85
2023-01-02T23:00:22.528Z,11.80
2023-01-02T23:02:50.479Z,11.67
2023-01-02T23:05:19.418Z,11.70
2023-01-02T23:07:46.974Z,11.73
2023-01-02T23:10:13.989Z,11.65
2023-01-02T23:12:40.675Z,11.24
2023-01-02T23:15:09.054Z,11.44
2023-01-02T23:17:54.399Z,11.37
2023-01-02T23:20:21.493Z,11.39
2023-01-02T23:22:48.335Z,11.42
2023-01-02T23:25:15.545Z,11.52
2023-01-02T23:27:42.382Z,11.47
2023-01-02T23:30:09.806Z,11.52
2023-01-02T23:32:36.824Z,11.59
2023-01-02T23:35:04.344Z,11.43
2023-01-02T23:37:31.026Z,11.46
2023-01-02T23:39:57.755Z,11.55
2023-01-02T23:42:24.485Z,11.60
2023-01-02T23:44:51.269Z,11.64
2023-01-02T23:47:19.374Z,11.60
2023-01-02T23:49:46.284Z,11.61
2023-01-02T23:52:13.155Z,11.53
2023-01-02T23:54:39.989Z,11.46
2023-01-02T23:57:06.774Z,11.55
2023-01-02T23:59:33.533Z,11.59
